createdAt,value
2023-01-23T00:01:31.134Z,101446.03
2023-01-23T00:03:59.319Z,101442.59
2023-01-23T00:06:27.320Z,101438.47
2023-01-23T00:08:56.768Z,101434.41
2023-01-23T00:11:26.064Z,101428.72
2023-01-23T00:13:54.005Z,101429.81
2023-01-23T00:16:23.077Z,101425.31
2023-01-23T00:18:50.599Z,101419.41
2023-01-23T00:21:21.047Z,101412.72
2023-01-23T00:23:51.842Z,101407.00
2023-01-23T00:26:21.036Z,101403.66
2023-01-23T00:28:48.397Z,101416.72
2023-01-23T00:31:21.108Z,101412.56
2023-01-23T00:33:49.111Z,101405.97
2023-01-23T00:36:16.821Z,101398.91
2023-01-23T00:38:44.520Z,101398.22
2023-01-23T00:41:12.751Z,101395.56
2023-01-23T00:43:40.556Z,101404.13
2023-01-23T00:46:08.255Z,101397.13
2023-01-23T00:48:36.352Z,101391.16
2023-01-23T00:51:04.234Z,101391.88
2023-01-23T00:53:32.291Z,101392.28
2023-01-23T00:55:59.867Z,101385.59
2023-01-23T00:58:27.847Z,101390.69
2023-01-23T01:00:55.991Z,101385.41
2023-01-23T01:03:25.337Z,101388.22
2023-01-23T01:05:53.159Z,101382.31
2023-01-23T01:08:24.529Z,101376.34
2023-01-23T01:10:52.580Z,101374.75
2023-01-23T01:13:21.547Z,101368.06
2023-01-23T01:15:54.124Z,101363.91
2023-01-23T01:18:22.816Z,101361.47
2023-01-23T01:20:50.543Z,101362.16
2023-01-23T01:23:18.677Z,101351.84
2023-01-23T01:25:47.117Z,101350.78
2023-01-23T01:28:14.958Z,101363.66
2023-01-23T01:30:42.617Z,101369.03
2023-01-23T01:33:11.192Z,101380.41
2023-01-23T01:35:40.001Z,101379.00
2023-01-23T01:38:08.995Z,101385.38
2023-01-23T01:40:37.292Z,101377.00
2023-01-23T01:43:08.307Z,101377.16
2023-01-23T01:46:03.099Z,101375.50
2023-01-23T01:48:40.763Z,101372.34
2023-01-23T01:51:29.846Z,101365.53
2023-01-23T01:54:20.694Z,101370.03
2023-01-23T01:56:58.418Z,101360.88
2023-01-23T01:59:27.683Z,101362.63
2023-01-23T02:01:58.828Z,101356.84
2023-01-23T02:04:26.046Z,101357.50
2023-01-23T02:06:53.906Z,101348.00
2023-01-23T02:09:26.910Z,101348.72
2023-01-23T02:11:54.585Z,101344.28
2023-01-23T02:14:25.800Z,101342.97
2023-01-23T02:17:00.362Z,101338.66
2023-01-23T02:19:27.496Z,101341.63
2023-01-23T02:22:04.113Z,101331.25
2023-01-23T02:24:35.166Z,101327.22
2023-01-23T02:27:03.309Z,101317.06
2023-01-23T02:29:43.303Z,101312.56
2023-01-23T02:32:11.743Z,101305.84
2023-01-23T02:34:39.003Z,101303.41
2023-01-23T02:37:06.304Z,101306.06
2023-01-23T02:39:34.567Z,101294.66
2023-01-23T02:42:01.734Z,101288.69
2023-01-23T02:44:32.013Z,101274.69
2023-01-23T02:47:01.391Z,101279.06
2023-01-23T02:49:30.482Z,101279.53
2023-01-23T02:51:58.668Z,101281.72
2023-01-23T02:54:26.853Z,101285.63
2023-01-23T02:56:54.738Z,101285.06
2023-01-23T02:59:40.831Z,101292.09
2023-01-23T03:02:08.370Z,101288.31
2023-01-23T03:04:36.387Z,101285.94
2023-01-23T03:07:04.736Z,101284.97
2023-01-23T03:09:32.337Z,101272.22
2023-01-23T03:12:00.973Z,101262.13
2023-01-23T03:14:30.167Z,101263.69
2023-01-23T03:16:58.701Z,101266.59
2023-01-23T03:19:27.224Z,101264.03
2023-01-23T03:21:54.770Z,101259.72
2023-01-23T03:24:22.727Z,101244.38
2023-01-23T03:26:50.897Z,101247.44
2023-01-23T03:29:44.745Z,101246.47
2023-01-23T03:32:12.794Z,101245.69
2023-01-23T03:34:41.581Z,101242.50
2023-01-23T03:37:09.522Z,101234.09
2023-01-23T03:39:55.758Z,101232.59
2023-01-23T03:42:24.503Z,101224.41
2023-01-23T03:44:52.882Z,101216.41
2023-01-23T03:47:20.904Z,101194.34
2023-01-23T03:49:48.729Z,101200.91
2023-01-23T03:52:16.277Z,101191.94
2023-01-23T03:54:43.973Z,101173.78
2023-01-23T03:57:11.535Z,101173.00
2023-01-23T03:59:39.635Z,101176.72
2023-01-23T04:02:07.666Z,101165.13
2023-01-23T04:04:34.832Z,101156.94
2023-01-23T04:07:02.584Z,101155.88
2023-01-23T04:09:30.433Z,101141.75
2023-01-23T04:11:58.560Z,101144.69
2023-01-23T04:14:26.590Z,101134.78
2023-01-23T04:16:54.725Z,101126.47
2023-01-23T04:19:22.955Z,101132.72
2023-01-23T04:21:50.918Z,101125.78
2023-01-23T04:24:18.580Z,101137.31
2023-01-23T04:26:46.154Z,101126.25
2023-01-23T04:29:13.868Z,101131.47
2023-01-23T04:31:41.809Z,101122.41
2023-01-23T04:34:09.591Z,101116.75
2023-01-23T04:36:37.542Z,101115.25
2023-01-23T04:39:05.094Z,101116.97
2023-01-23T04:41:33.670Z,101133.28
2023-01-23T04:44:20.407Z,101153.13
2023-01-23T04:46:53.040Z,101146.50
2023-01-23T04:49:40.666Z,101152.34
2023-01-23T04:52:08.679Z,101156.72
2023-01-23T04:54:36.934Z,101161.84
2023-01-23T04:57:05.363Z,101167.81
2023-01-23T04:59:33.474Z,101163.53
2023-01-23T05:02:02.419Z,101164.31
2023-01-23T05:04:30.561Z,101167.81
2023-01-23T05:06:58.596Z,101151.47
2023-01-23T05:09:27.060Z,101148.00
2023-01-23T05:11:54.992Z,101135.16
2023-01-23T05:14:24.356Z,101125.88
2023-01-23T05:16:52.146Z,101124.09
2023-01-23T05:19:20.195Z,101128.44
2023-01-23T05:21:48.897Z,101129.13
2023-01-23T05:24:16.898Z,101134.44
2023-01-23T05:26:45.215Z,101128.50
2023-01-23T05:29:13.269Z,101138.03
2023-01-23T05:31:41.889Z,101132.91
2023-01-23T05:34:09.707Z,101128.81
2023-01-23T05:36:37.686Z,101125.47
2023-01-23T05:39:05.191Z,101135.06
2023-01-23T05:41:33.519Z,101145.22
2023-01-23T05:44:01.238Z,101139.22
2023-01-23T05:46:29.642Z,101137.84
2023-01-23T05:48:57.512Z,101145.53
2023-01-23T05:51:31.635Z,101143.06
2023-01-23T05:54:02.819Z,101141.28
2023-01-23T05:56:30.517Z,101137.75
2023-01-23T05:58:58.508Z,101142.88
2023-01-23T06:01:26.531Z,101143.78
2023-01-23T06:03:54.659Z,101134.50
2023-01-23T06:06:22.396Z,101138.81
2023-01-23T06:08:50.158Z,101133.69
2023-01-23T06:11:18.276Z,101137.53
2023-01-23T06:13:46.233Z,101141.47
2023-01-23T06:16:16.922Z,101130.91
2023-01-23T06:18:45.129Z,101127.84
2023-01-23T06:21:12.985Z,101134.56
2023-01-23T06:23:40.749Z,101134.56
2023-01-23T06:26:08.713Z,101126.97
2023-01-23T06:28:36.351Z,101132.19
2023-01-23T06:31:04.281Z,101123.59
2023-01-23T06:33:32.466Z,101125.47
2023-01-23T06:36:00.841Z,101125.56
2023-01-23T06:38:28.730Z,101119.72
2023-01-23T06:40:57.881Z,101123.97
2023-01-23T06:43:25.295Z,101131.53
2023-01-23T06:45:53.229Z,101131.53
2023-01-23T06:48:22.014Z,101134.19
2023-01-23T06:50:49.714Z,101135.06
2023-01-23T06:53:17.400Z,101133.16
2023-01-23T06:55:45.214Z,101130.81
2023-01-23T06:58:12.789Z,101123.06
2023-01-23T07:00:40.753Z,101122.81
2023-01-23T07:03:08.983Z,101118.25
2023-01-23T07:05:39.565Z,101121.31
2023-01-23T07:08:08.701Z,101126.41
2023-01-23T07:10:40.773Z,101119.53
2023-01-23T07:13:09.413Z,101118.25
2023-01-23T07:15:37.663Z,101111.63
2023-01-23T07:18:05.896Z,101117.81
2023-01-23T07:20:33.542Z,101116.00
2023-01-23T07:23:03.922Z,101116.88
2023-01-23T07:25:32.788Z,101112.81
2023-01-23T07:28:01.558Z,101112.06
2023-01-23T07:30:29.562Z,101119.22
2023-01-23T07:32:58.465Z,101116.81
2023-01-23T07:35:25.552Z,101109.78
2023-01-23T07:37:53.827Z,101111.38
2023-01-23T07:40:22.268Z,101121.03
2023-01-23T07:42:50.603Z,101113.63
2023-01-23T07:45:18.739Z,101129.13
2023-01-23T07:47:46.796Z,101127.13
2023-01-23T07:50:15.052Z,101128.88
2023-01-23T07:52:42.944Z,101141.81
2023-01-23T07:55:10.774Z,101135.09
2023-01-23T07:57:38.430Z,101135.38
2023-01-23T08:00:08.661Z,101140.00
2023-01-23T08:02:37.007Z,101144.25
2023-01-23T08:05:04.906Z,101144.56
2023-01-23T08:07:33.020Z,101140.28
2023-01-23T08:10:01.188Z,101147.84
2023-01-23T08:12:29.267Z,101145.28
2023-01-23T08:14:57.553Z,101147.94
2023-01-23T08:17:25.591Z,101155.03
2023-01-23T08:19:53.588Z,101148.06
2023-01-23T08:22:21.788Z,101146.38
2023-01-23T08:24:50.270Z,101154.06
2023-01-23T08:27:17.889Z,101157.34
2023-01-23T08:29:46.073Z,101158.44
2023-01-23T08:32:16.879Z,101161.09
2023-01-23T08:34:44.651Z,101163.56
2023-01-23T08:37:12.688Z,101156.63
2023-01-23T08:39:40.249Z,101166.75
2023-01-23T08:42:08.425Z,101161.72
2023-01-23T08:44:36.473Z,101164.38
2023-01-23T08:47:04.639Z,101174.06
2023-01-23T08:49:34.868Z,101172.78
2023-01-23T08:52:02.517Z,101181.75
2023-01-23T08:54:30.752Z,101180.31
2023-01-23T08:56:58.782Z,101178.47
2023-01-23T08:59:27.525Z,101183.25
2023-01-23T09:01:55.909Z,101184.06
2023-01-23T09:04:24.033Z,101183.72
2023-01-23T09:06:52.191Z,101187.91
2023-01-23T09:09:20.066Z,101187.47
2023-01-23T09:11:47.645Z,101191.00
2023-01-23T09:14:15.873Z,101192.34
2023-01-23T09:16:46.507Z,101183.94
2023-01-23T09:19:15.875Z,101196.09
2023-01-23T09:21:43.886Z,101189.38
2023-01-23T09:24:12.284Z,101186.94
2023-01-23T09:26:40.357Z,101188.72
2023-01-23T09:29:08.521Z,101188.84
2023-01-23T09:31:36.723Z,101192.22
2023-01-23T09:34:04.569Z,101189.16
2023-01-23T09:36:42.357Z,101180.66
2023-01-23T09:39:10.938Z,101191.22
2023-01-23T09:41:39.353Z,101201.31
2023-01-23T09:44:22.649Z,101204.03
2023-01-23T09:46:56.586Z,101199.78
2023-01-23T09:49:31.383Z,101213.47
2023-01-23T09:52:26.541Z,101212.00
2023-01-23T09:55:03.883Z,101211.28
2023-01-23T09:57:36.142Z,101202.78
2023-01-23T10:00:07.641Z,101206.22
2023-01-23T10:02:35.710Z,101196.19
2023-01-23T10:05:03.872Z,101197.97
2023-01-23T10:08:11.258Z,101200.28
2023-01-23T10:10:54.149Z,101206.31
2023-01-23T10:13:48.703Z,101204.84
2023-01-23T10:16:48.821Z,101208.22
2023-01-23T10:19:57.842Z,101200.44
2023-01-23T10:22:38.087Z,101197.06
2023-01-23T10:25:26.374Z,101197.34
2023-01-23T10:27:56.488Z,101195.72
2023-01-23T10:30:29.868Z,101194.13
2023-01-23T10:33:01.600Z,101193.16
2023-01-23T10:36:02.373Z,101189.75
2023-01-23T10:38:55.150Z,101192.47
2023-01-23T10:41:27.703Z,101184.41
2023-01-23T10:43:56.776Z,101182.22
2023-01-23T10:46:38.731Z,101178.91
2023-01-23T10:49:13.749Z,101174.63
2023-01-23T10:51:48.115Z,101180.88
2023-01-23T10:54:31.316Z,101179.25
2023-01-23T10:57:04.791Z,101180.97
2023-01-23T10:59:48.867Z,101171.66
2023-01-23T11:02:18.999Z,101169.22
2023-01-23T11:04:48.095Z,101172.59
2023-01-23T11:07:19.970Z,101158.94
2023-01-23T11:09:49.986Z,101147.28
2023-01-23T11:12:56.286Z,101152.34
2023-01-23T11:15:38.163Z,101157.88
2023-01-23T11:18:32.436Z,101159.13
2023-01-23T11:21:00.150Z,101150.06
2023-01-23T11:23:27.002Z,101152.88
2023-01-23T11:25:55.015Z,101140.97
2023-01-23T11:28:34.313Z,101141.38
2023-01-23T11:31:16.268Z,101138.72
2023-01-23T11:33:53.214Z,101144.81
2023-01-23T11:36:19.850Z,101146.78
2023-01-23T11:38:54.867Z,101143.47
2023-01-23T11:41:31.780Z,101155.09
2023-01-23T11:44:08.103Z,101152.44
2023-01-23T11:46:46.196Z,101163.88
2023-01-23T11:49:23.537Z,101155.50
2023-01-23T11:51:50.104Z,101153.13
2023-01-23T11:54:32.780Z,101153.72
2023-01-23T11:57:08.610Z,101143.59
2023-01-23T12:00:06.816Z,101135.22
2023-01-23T12:02:39.181Z,101127.19
2023-01-23T12:05:37.814Z,101133.63
2023-01-23T12:08:11.225Z,101143.41
2023-01-23T12:10:48.099Z,101152.13
2023-01-23T12:14:03.858Z,101155.59
2023-01-23T12:16:49.805Z,101152.94
2023-01-23T12:19:28.878Z,101146.25
2023-01-23T12:22:08.261Z,101148.44
2023-01-23T12:25:16.577Z,101140.72
2023-01-23T12:27:47.878Z,101149.47
2023-01-23T12:30:52.039Z,101144.41
2023-01-23T12:33:25.387Z,101125.72
2023-01-23T12:36:17.637Z,101133.41
2023-01-23T12:39:05.904Z,101137.88
2023-01-23T12:41:46.614Z,101129.00
2023-01-23T12:44:17.996Z,101117.97
2023-01-23T12:47:01.060Z,101126.94
2023-01-23T12:49:43.356Z,101118.44
2023-01-23T12:52:38.663Z,101123.88
2023-01-23T12:55:21.976Z,101128.53
2023-01-23T12:58:00.265Z,101114.38
2023-01-23T13:00:41.482Z,101126.59
2023-01-23T13:03:37.414Z,101131.25
2023-01-23T13:06:44.308Z,101137.63
2023-01-23T13:09:40.305Z,101139.34
2023-01-23T13:12:19.936Z,101144.28
2023-01-23T13:17:37.911Z,101134.81
2023-01-23T13:20:47.594Z,101145.88
2023-01-23T13:23:32.894Z,101123.22
2023-01-23T13:26:19.673Z,101125.00
2023-01-23T13:29:32.661Z,101144.50
2023-01-23T13:32:40.581Z,101149.78
2023-01-23T13:35:40.232Z,101152.03
2023-01-23T13:38:37.789Z,101167.47
2023-01-23T13:41:18.644Z,101171.69
2023-01-23T13:44:19.064Z,101177.91
2023-01-23T14:24:25.119Z,101239.38
2023-01-23T14:27:07.005Z,101229.94
2023-01-23T14:29:35.836Z,101231.38
2023-01-23T14:32:03.660Z,101244.00
2023-01-23T14:34:31.528Z,101235.66
2023-01-23T14:37:06.351Z,101259.59
2023-01-23T14:39:34.725Z,101262.69
2023-01-23T14:42:02.789Z,101254.16
2023-01-23T14:44:38.079Z,101269.47
2023-01-23T14:47:05.820Z,101267.72
2023-01-23T14:49:36.638Z,101276.91
2023-01-23T14:52:06.152Z,101297.09
2023-01-23T14:54:34.661Z,101288.09
2023-01-23T14:57:03.036Z,101301.78
2023-01-23T14:59:33.975Z,101303.16
2023-01-23T15:02:07.702Z,101303.47
2023-01-23T15:04:44.586Z,101315.41
2023-01-23T15:07:17.393Z,101314.34
2023-01-23T15:09:46.607Z,101313.13
2023-01-23T15:12:17.410Z,101319.00
2023-01-23T15:14:45.337Z,101320.47
2023-01-23T15:17:20.141Z,101318.59
2023-01-23T15:19:51.833Z,101327.41
2023-01-23T15:22:22.746Z,101309.22
2023-01-23T15:24:57.550Z,101331.53
2023-01-23T15:27:31.120Z,101322.09
2023-01-23T15:30:28.866Z,101339.97
2023-01-23T15:45:16.479Z,101373.13
2023-01-23T15:47:44.420Z,101365.13
2023-01-23T15:50:13.316Z,101373.94
2023-01-23T15:52:47.457Z,101372.94
2023-01-23T15:55:15.405Z,101385.38
2023-01-23T15:57:43.364Z,101377.88
2023-01-23T16:00:19.061Z,101367.56
2023-01-23T16:02:56.186Z,101386.53
2023-01-23T16:05:25.520Z,101397.13
2023-01-23T16:07:53.173Z,101394.16
2023-01-23T16:10:58.307Z,101417.19
2023-01-23T16:13:26.316Z,101415.28
2023-01-23T16:15:54.028Z,101425.28
2023-01-23T16:18:23.928Z,101396.19
2023-01-23T16:20:51.608Z,101418.66
2023-01-23T16:23:22.796Z,101427.19
2023-01-23T16:25:56.330Z,101434.00
2023-01-23T16:28:24.418Z,101444.50
2023-01-23T16:30:52.335Z,101427.31
2023-01-23T16:33:20.877Z,101442.47
2023-01-23T16:35:48.597Z,101449.38
2023-01-23T16:38:22.770Z,101456.41
2023-01-23T16:40:51.796Z,101470.41
2023-01-23T16:43:20.389Z,101473.88
2023-01-23T16:45:48.090Z,101473.59
2023-01-23T16:48:26.333Z,101461.28
2023-01-23T16:50:56.858Z,101469.66
2023-01-23T16:53:26.348Z,101469.66
2023-01-23T16:55:54.590Z,101484.41
2023-01-23T16:59:00.508Z,101489.56
2023-01-23T17:01:28.685Z,101498.34
2023-01-23T17:04:03.094Z,101503.50
2023-01-23T17:06:30.028Z,101498.44
2023-01-23T17:08:57.837Z,101507.88
2023-01-23T17:11:34.233Z,101526.63
2023-01-23T17:14:07.050Z,101529.94
2023-01-23T17:16:35.073Z,101523.94
2023-01-23T17:19:02.827Z,101531.28
2023-01-23T17:21:32.945Z,101529.66
2023-01-23T17:24:00.333Z,101532.97
2023-01-23T17:26:28.458Z,101532.22
2023-01-23T17:28:56.471Z,101545.94
2023-01-23T17:31:24.748Z,101538.25
2023-01-23T17:33:52.908Z,101548.53
2023-01-23T17:36:20.407Z,101537.22
2023-01-23T17:38:48.421Z,101559.56
2023-01-23T17:41:15.779Z,101557.78
2023-01-23T17:43:49.016Z,101543.75
2023-01-23T17:46:39.774Z,101563.66
2023-01-23T17:49:36.311Z,101562.03
2023-01-23T17:52:04.466Z,101563.94
2023-01-23T17:54:33.144Z,101575.06
2023-01-23T17:57:00.814Z,101593.06
2023-01-23T17:59:28.704Z,101587.91
2023-01-23T18:01:56.639Z,101585.47
2023-01-23T18:04:24.865Z,101589.81
2023-01-23T18:06:52.721Z,101586.72
2023-01-23T18:09:21.366Z,101596.88
2023-01-23T18:11:55.272Z,101600.97
2023-01-23T18:14:33.545Z,101605.38
2023-01-23T18:17:20.718Z,101607.00
2023-01-23T18:19:51.701Z,101614.56
2023-01-23T18:22:20.267Z,101612.78
2023-01-23T18:24:49.728Z,101623.06
2023-01-23T18:27:25.830Z,101632.56
2023-01-23T18:30:09.164Z,101647.16
2023-01-23T18:32:50.789Z,101655.75
2023-01-23T18:35:44.330Z,101660.00
2023-01-23T18:38:16.822Z,101670.81
2023-01-23T18:41:08.591Z,101682.75
2023-01-23T18:43:39.157Z,101685.72
2023-01-23T18:46:35.999Z,101706.66
2023-01-23T18:49:05.850Z,101729.94
2023-01-23T18:51:47.302Z,101729.63
2023-01-23T18:54:29.046Z,101737.00
2023-01-23T18:56:55.906Z,101741.81
2023-01-23T18:59:28.417Z,101746.91
2023-01-23T19:02:28.476Z,101743.75
2023-01-23T19:05:28.885Z,101734.66
2023-01-23T19:07:57.558Z,101720.88
2023-01-23T19:10:40.094Z,101710.22
2023-01-23T19:13:42.291Z,101702.53
2023-01-23T19:16:31.646Z,101705.56
2023-01-23T19:19:26.926Z,101711.78
2023-01-23T19:22:01.058Z,101711.47
2023-01-23T19:24:30.592Z,101729.19
2023-01-23T19:27:00.173Z,101715.72
2023-01-23T19:29:29.061Z,101718.91
2023-01-23T19:32:06.193Z,101718.03
2023-01-23T19:34:34.166Z,101719.16
2023-01-23T19:37:02.540Z,101729.06
2023-01-23T19:39:30.942Z,101725.91
2023-01-23T19:41:59.237Z,101736.34
2023-01-23T19:44:28.974Z,101733.16
2023-01-23T19:46:56.736Z,101745.34
2023-01-23T19:49:25.265Z,101753.88
2023-01-23T19:51:53.229Z,101775.28
2023-01-23T19:54:23.006Z,101771.03
2023-01-23T19:56:52.471Z,101777.38
2023-01-23T19:59:20.928Z,101790.16
2023-01-23T20:01:48.756Z,101794.00
2023-01-23T20:04:20.973Z,101804.53
2023-01-23T20:06:54.653Z,101806.84
2023-01-23T20:09:22.550Z,101792.53
2023-01-23T20:11:50.461Z,101800.72
2023-01-23T20:14:18.655Z,101809.13
2023-01-23T20:16:46.664Z,101819.16
2023-01-23T20:19:15.321Z,101826.66
2023-01-23T20:21:43.556Z,101817.31
2023-01-23T20:24:11.520Z,101823.22
2023-01-23T20:26:39.362Z,101824.91
2023-01-23T20:29:08.040Z,101839.44
2023-01-23T20:31:36.069Z,101834.31
2023-01-23T20:34:04.471Z,101837.56
2023-01-23T20:36:32.550Z,101850.06
2023-01-23T20:39:00.056Z,101856.88
2023-01-23T20:41:27.971Z,101853.78
2023-01-23T20:43:55.184Z,101854.41
2023-01-23T20:46:23.275Z,101851.38
2023-01-23T20:48:51.370Z,101862.94
2023-01-23T20:51:19.511Z,101867.22
2023-01-23T20:53:47.186Z,101881.41
2023-01-23T20:56:19.015Z,101879.47
2023-01-23T20:59:06.267Z,101886.09
2023-01-23T21:01:54.737Z,101901.06
2023-01-23T21:04:22.501Z,101914.84
2023-01-23T21:06:50.094Z,101922.75
2023-01-23T21:09:18.361Z,101931.56
2023-01-23T21:11:46.125Z,101924.22
2023-01-23T21:14:14.339Z,101927.75
2023-01-23T21:16:42.100Z,101932.03
2023-01-23T21:19:09.905Z,101926.63
2023-01-23T21:21:37.555Z,101922.91
2023-01-23T21:24:06.038Z,101916.00
2023-01-23T21:26:33.908Z,101920.00
2023-01-23T21:29:02.164Z,101924.97
2023-01-23T21:31:33.594Z,101924.34
2023-01-23T21:34:02.592Z,101929.03
2023-01-23T21:36:31.823Z,101935.38
2023-01-23T21:38:58.923Z,101938.94
2023-01-23T21:41:27.511Z,101947.53
2023-01-23T21:43:55.226Z,101952.56
2023-01-23T21:46:22.981Z,101946.00
2023-01-23T21:48:51.994Z,101962.31
2023-01-23T21:51:22.799Z,101979.56
2023-01-23T21:53:50.603Z,101980.53
2023-01-23T21:56:19.286Z,101980.34
2023-01-23T21:58:50.214Z,101985.13
2023-01-23T22:01:39.630Z,101988.50
2023-01-23T22:04:18.455Z,101987.34
2023-01-23T22:06:46.080Z,101988.88
2023-01-23T22:09:36.816Z,101996.56
2023-01-23T22:12:05.538Z,101998.59
2023-01-23T22:14:33.163Z,101992.75
2023-01-23T22:17:00.864Z,101987.53
2023-01-23T22:19:28.935Z,101994.63
2023-01-23T22:21:57.307Z,101996.56
2023-01-23T22:24:24.544Z,102000.72
2023-01-23T22:26:52.779Z,102009.56
2023-01-23T22:29:20.474Z,102015.66
2023-01-23T22:31:48.724Z,102023.47
2023-01-23T22:34:17.016Z,102025.16
2023-01-23T22:36:45.042Z,102021.88
2023-01-23T22:39:12.544Z,102031.38
2023-01-23T22:41:40.462Z,102031.38
2023-01-23T22:44:08.671Z,102045.06
2023-01-23T22:46:37.009Z,102052.78
2023-01-23T22:49:05.167Z,102068.34
2023-01-23T22:51:32.822Z,102061.47
2023-01-23T22:54:00.459Z,102058.34
2023-01-23T22:56:28.528Z,102061.34
2023-01-23T22:58:56.095Z,102062.94
2023-01-23T23:01:23.517Z,102067.81
2023-01-23T23:03:51.616Z,102061.88
2023-01-23T23:06:19.454Z,102064.16
2023-01-23T23:08:48.147Z,102066.75
2023-01-23T23:11:18.220Z,102062.59
2023-01-23T23:13:45.488Z,102060.00
2023-01-23T23:16:22.156Z,102063.47
2023-01-23T23:18:51.774Z,102053.19
2023-01-23T23:21:20.986Z,102065.16
2023-01-23T23:23:49.086Z,102067.63
2023-01-23T23:26:17.356Z,102068.22
2023-01-23T23:28:45.617Z,102067.44
2023-01-23T23:31:13.511Z,102071.78
2023-01-23T23:33:41.639Z,102072.75
2023-01-23T23:36:10.400Z,102070.09
2023-01-23T23:38:38.234Z,102071.78
2023-01-23T23:41:11.733Z,102067.50
2023-01-23T23:43:39.200Z,102065.84
2023-01-23T23:46:07.309Z,102071.00
2023-01-23T23:48:35.963Z,102064.06
2023-01-23T23:51:04.802Z,102064.16
2023-01-23T23:53:32.914Z,102066.53
2023-01-23T23:56:01.164Z,102063.19
2023-01-23T23:58:29.011Z,102059.81
